Weather at London Gliding Club

Public forecast

Using degrees Celsius for public forecast. Weather courtesy of forecast.io.

Closest aviation weather report (METAR) to London Gliding Club

Closest report is London Luton Airport, 6.6 nm (12.2 km) E. Retrieved 2021/06/19 20:20 UTC (18 minutes ago):

EGGW 192020Z AUTO 07007KT 040V110 9999 -RA BKN006 OVC009 12/12 Q1011

Closest aviation forecast (TAF) to London Gliding Club

Closest forecast is London Luton Airport, 6.6 nm (12.2 km) E. Retrieved 2021/06/19 18:00 UTC (3 hours ago):

TAF EGGW 191702Z 1918/2018 07010KT 9999 SCT007 BKN015 TEMPO 1918/1922 5000 -RADZ BKN009 PROB30 TEMPO 1918/1922 3000 RADZ BKN004 BECMG 1922/2001 BKN008 TEMPO 1922/2003 5000 -RADZ BKN004 PROB30 TEMPO 1922/2003 2000 RADZ PROB40 TEMPO 2003/2008 0800 RADZ FG BKN000 TEMPO 2008/2011 3000 -RADZ BKN003 BECMG 2011/2014 BKN025 TEMPO 2011/2016 8000 SHRA BKN012 PROB40 TEMPO 2016/2018 4000 -RADZ BKN004